Time;durP1;ratioP1;P1;durP2;ratioP2;P2;SDS_P1;SDS_P2;PMS_P1;PMS_P2;Temp;Humidity;BMP_temperature;BMP_pressure;BME280_temperature;BME280_humidity;BME280_pressure;Samples;Min_cycle;Max_cycle;Signal;HPM_P1;HPM_P2
2022/03/18 00:00:42;;;;;;;21.30;13.63;;;1.00;99.90;1.20;98302.00;;;;5070058;28;20939;-86
2022/03/18 00:03:30;;;;;;;21.20;13.70;;;1.10;99.90;0.90;98300.00;;;;5070568;28;20446;-86
2022/03/18 00:06:19;;;;;;;17.70;13.33;;;1.00;99.90;0.70;98301.00;;;;5070506;28;20430;-85
2022/03/18 00:09:08;;;;;;;14.83;11.63;;;0.90;99.90;0.50;98311.00;;;;5072174;28;20805;-85
2022/03/18 00:11:57;;;;;;;17.90;12.63;;;0.90;99.90;0.70;98310.00;;;;5069855;28;20446;-86
2022/03/18 00:14:46;;;;;;;15.83;12.73;;;0.80;99.90;0.90;98315.00;;;;5067840;28;20431;-85
2022/03/18 00:17:37;;;;;;;17.63;14.20;;;0.70;99.90;1.00;98316.00;;;;5066970;28;20437;-85
2022/03/18 00:20:26;;;;;;;18.90;13.07;;;0.80;99.90;0.70;98318.00;;;;5051378;28;20435;-86
2022/03/18 00:23:15;;;;;;;20.80;12.93;;;0.70;99.90;1.00;98318.00;;;;5058003;28;20435;-86
2022/03/18 00:26:04;;;;;;;21.10;14.37;;;0.70;99.90;0.90;98312.00;;;;5063589;28;20461;-85
2022/03/18 00:28:53;;;;;;;19.67;13.20;;;0.80;99.90;0.70;98317.00;;;;5050935;28;20428;-85
2022/03/18 00:31:42;;;;;;;18.77;13.00;;;0.80;99.90;0.50;98322.00;;;;5049162;28;20427;-86
2022/03/18 00:34:32;;;;;;;18.93;13.70;;;0.60;99.90;0.30;98317.00;;;;5056019;28;20455;-85
2022/03/18 00:37:21;;;;;;;13.10;10.07;;;1.00;99.90;0.00;98311.00;;;;5050733;28;20899;-85
2022/03/18 00:40:11;;;;;;;16.03;11.47;;;0.50;99.90;-0.40;98307.00;;;;5053739;28;20439;-86
2022/03/18 00:43:00;;;;;;;20.33;14.17;;;0.30;99.90;0.10;98313.00;;;;5059502;28;20442;-86
2022/03/18 00:45:49;;;;;;;24.73;13.77;;;0.30;99.90;0.50;98325.00;;;;5063933;28;20436;-85
2022/03/18 00:52:04;;;;;;;21.73;14.63;;;0.30;99.90;0.40;98327.00;;;;5049837;28;20446;-85
2022/03/18 00:54:53;;;;;;;19.37;13.67;;;0.40;99.90;0.00;98318.00;;;;5050119;28;20983;-86
2022/03/18 00:57:42;;;;;;;18.50;13.37;;;0.20;99.90;-0.20;98325.00;;;;5061548;28;20465;-86
2022/03/18 01:00:31;;;;;;;20.17;14.10;;;0.50;99.90;0.20;98309.00;;;;5071129;28;20445;-86
2022/03/18 01:03:20;;;;;;;16.80;12.63;;;0.60;99.90;0.40;98309.00;;;;5064613;28;20917;-86
2022/03/18 01:06:09;;;;;;;16.87;13.33;;;1.00;99.90;0.50;98312.00;;;;5050671;28;20920;-86
2022/03/18 01:08:59;;;;;;;15.87;12.60;;;0.30;99.90;0.10;98302.00;;;;5048757;28;20438;-85
2022/03/18 01:11:49;;;;;;;20.93;14.20;;;0.30;99.90;0.00;98316.00;;;;5048979;28;20443;-86
2022/03/18 01:14:38;;;;;;;18.60;12.53;;;0.10;99.90;0.20;98303.00;;;;5058263;28;20560;-86
2022/03/18 01:17:27;;;;;;;22.27;14.53;;;0.10;99.90;0.00;98300.00;;;;5062394;28;20431;-86
2022/03/18 01:20:16;;;;;;;22.63;15.70;;;0.10;99.90;0.00;98307.00;;;;5049628;28;20438;-85
2022/03/18 01:23:06;;;;;;;15.50;12.03;;;0.10;99.90;-0.10;98293.00;;;;5049580;28;20897;-86
2022/03/18 01:25:56;;;;;;;19.67;14.93;;;1.20;99.90;0.00;98304.00;;;;5057319;28;20427;-86
2022/03/18 01:28:45;;;;;;;19.83;13.43;;;0.00;99.90;0.10;98297.00;;;;5049558;28;20436;-86
2022/03/18 01:31:34;;;;;;;20.93;14.20;;;0.10;99.90;0.10;98300.00;;;;5048706;28;20427;-86
2022/03/18 01:34:23;;;;;;;18.07;13.77;;;0.00;99.90;0.00;98304.00;;;;5056577;28;20486;-85
2022/03/18 01:37:11;;;;;;;19.33;14.07;;;0.00;99.90;-0.30;98287.00;;;;5048873;28;20866;-86
2022/03/18 01:40:00;;;;;;;17.07;13.03;;;-0.10;99.90;0.00;98304.00;;;;5052431;28;20424;-85
2022/03/18 01:42:51;;;;;;;23.37;14.23;;;0.30;99.90;-0.10;98297.00;;;;5049299;28;20830;-85
2022/03/18 01:45:40;;;;;;;18.00;13.07;;;0.00;99.90;-0.20;98297.00;;;;5050443;28;20431;-85
2022/03/18 01:48:29;;;;;;;21.77;16.17;;;-0.20;99.90;-0.20;98288.00;;;;5050023;28;20423;-85
2022/03/18 01:51:18;;;;;;;22.20;15.40;;;0.30;99.90;-0.30;98288.00;;;;5048708;28;20947;-86
2022/03/18 01:57:16;;;;;;;16.73;11.30;;;0.50;99.90;-0.60;98295.00;;;;5056118;28;20442;-85
2022/03/18 02:00:07;;;;;;;19.07;14.83;;;0.30;99.90;-0.50;98300.00;;;;5068995;28;20449;-85
2022/03/18 02:02:57;;;;;;;19.67;15.23;;;-0.30;99.90;-0.50;98306.00;;;;5053646;28;20462;-86
2022/03/18 02:05:46;;;;;;;19.67;13.00;;;0.10;99.90;-0.80;98297.00;;;;5059453;28;20807;-86
2022/03/18 02:08:36;;;;;;;18.10;13.80;;;0.10;99.90;-0.30;98299.00;;;;5069993;28;20437;-86
2022/03/18 02:11:26;;;;;;;18.03;13.50;;;-0.70;99.90;-0.10;98316.00;;;;5068172;28;20434;-85
2022/03/18 02:14:15;;;;;;;18.07;13.90;;;-0.10;99.90;0.10;98322.00;;;;5073314;28;20465;-86
2022/03/18 02:17:07;;;;;;;19.50;14.00;;;0.00;99.90;-0.10;98312.00;;;;5061750;28;20424;-86
2022/03/18 02:19:56;;;;;;;21.53;14.43;;;0.00;99.90;-0.20;98311.00;;;;5050153;28;20492;-86
2022/03/18 02:22:47;;;;;;;18.80;14.37;;;0.10;99.90;-0.30;98315.00;;;;5048273;28;20448;-85
2022/03/18 02:25:36;;;;;;;23.20;14.93;;;0.00;99.90;-0.50;98323.00;;;;5058341;28;20434;-85
2022/03/18 02:28:24;;;;;;;18.23;12.87;;;0.20;99.90;-0.50;98316.00;;;;5049935;28;20424;-86
2022/03/18 02:31:13;;;;;;;15.50;12.53;;;0.00;99.90;-0.50;98313.00;;;;5048873;28;20435;-85
2022/03/18 02:34:02;;;;;;;19.03;13.67;;;0.10;99.90;-0.30;98304.00;;;;5061803;28;20458;-85
2022/03/18 02:36:51;;;;;;;21.10;15.53;;;-0.10;99.90;-0.50;98321.00;;;;5049344;28;20435;-86
2022/03/18 02:39:41;;;;;;;20.83;14.63;;;-0.20;99.90;-0.50;98323.00;;;;5057317;28;20435;-85
2022/03/18 02:42:30;;;;;;;15.80;13.10;;;-0.20;99.90;-0.80;98321.00;;;;5051404;28;20478;-84
2022/03/18 02:45:19;;;;;;;21.20;14.57;;;-0.20;99.90;-0.80;98313.00;;;;5052353;28;20426;-85
2022/03/18 02:48:08;;;;;;;23.27;15.30;;;0.20;99.90;-0.80;98315.00;;;;5053084;28;20430;-86
2022/03/18 02:50:57;;;;;;;18.47;13.80;;;0.10;99.90;-0.80;98318.00;;;;5052806;28;20424;-85
2022/03/18 02:53:46;;;;;;;21.83;15.60;;;-0.40;99.90;-0.50;98325.00;;;;5053885;28;20450;-85
2022/03/18 02:56:36;;;;;;;23.33;15.17;;;-0.60;99.90;-0.30;98317.00;;;;5055309;28;20442;-86
2022/03/18 02:59:25;;;;;;;26.40;16.67;;;0.10;99.90;-0.30;98323.00;;;;5058283;28;20951;-86
2022/03/18 03:02:15;;;;;;;22.80;16.77;;;-0.70;99.90;-0.40;98330.00;;;;5051080;28;20474;-85
2022/03/18 03:08:10;;;;;;;21.50;14.90;;;0.30;99.90;-0.70;98327.00;;;;5051500;28;20427;-85
2022/03/18 03:10:59;;;;;;;26.00;14.27;;;-0.30;99.90;-0.90;98337.00;;;;5052534;28;20429;-86
2022/03/18 03:13:49;;;;;;;19.67;14.60;;;0.00;99.90;-1.10;98333.00;;;;5053907;28;20448;-86
2022/03/18 03:16:38;;;;;;;17.47;13.73;;;-0.40;99.90;-0.90;98331.00;;;;5060984;28;20427;-85
2022/03/18 03:19:27;;;;;;;22.70;14.43;;;-1.00;99.90;-1.00;98335.00;;;;5052424;28;20423;-86
2022/03/18 03:22:16;;;;;;;20.70;14.30;;;-0.70;99.90;-0.90;98342.00;;;;5052859;28;20451;-86
2022/03/18 03:25:06;;;;;;;18.27;12.57;;;-0.80;99.90;-1.00;98354.00;;;;5058547;28;20430;-86
2022/03/18 03:27:56;;;;;;;21.07;13.90;;;-0.80;99.90;-1.10;98355.00;;;;5054016;28;20443;-86
2022/03/18 03:30:48;;;;;;;17.67;13.97;;;-1.10;99.90;-1.00;98344.00;;;;5052418;28;20811;-85
2022/03/18 03:33:36;;;;;;;18.33;14.63;;;-0.70;99.90;-1.00;98355.00;;;;5055337;28;20586;-87
2022/03/18 03:36:25;;;;;;;24.50;15.97;;;-0.70;99.90;-0.70;98361.00;;;;5053402;28;20439;-86
2022/03/18 03:39:14;;;;;;;22.93;14.73;;;-1.00;99.90;-0.70;98370.00;;;;5058506;28;21059;-86
2022/03/18 03:42:03;;;;;;;22.73;16.70;;;-0.80;99.90;-0.70;98358.00;;;;5049994;28;20454;-85
2022/03/18 03:44:52;;;;;;;23.33;15.57;;;-0.90;99.90;-0.90;98367.00;;;;5059515;28;20427;-86
2022/03/18 03:47:43;;;;;;;19.37;15.10;;;-0.80;99.90;-1.00;98371.00;;;;5054554;28;20431;-85
2022/03/18 03:50:32;;;;;;;19.53;14.27;;;-0.30;99.90;-1.10;98371.00;;;;5052353;28;20430;-86
2022/03/18 03:53:21;;;;;;;17.97;14.90;;;-0.50;99.90;-1.10;98365.00;;;;5051020;28;20454;-86
2022/03/18 03:56:10;;;;;;;21.83;13.93;;;-0.40;99.90;-1.20;98371.00;;;;5052187;28;20991;-86
2022/03/18 03:58:58;;;;;;;18.83;12.07;;;-1.50;99.90;-1.70;98370.00;;;;5051433;28;20814;-85
2022/03/18 04:01:47;;;;;;;22.77;14.83;;;-0.50;99.90;-1.50;98387.00;;;;5051111;28;20535;-86
2022/03/18 04:04:38;;;;;;;24.30;15.03;;;-1.00;99.90;-1.10;98400.00;;;;5051478;28;20438;-86
2022/03/18 04:07:27;;;;;;;16.93;12.37;;;-0.80;99.90;-1.30;98398.00;;;;5051678;28;20427;-86
2022/03/18 04:10:19;;;;;;;18.87;14.20;;;-1.10;99.90;-1.30;98400.00;;;;5057633;28;20430;-86
2022/03/18 04:13:07;;;;;;;22.83;15.10;;;-0.70;99.90;-1.20;98389.00;;;;5070323;28;20442;-86
2022/03/18 04:15:56;;;;;;;19.93;14.47;;;-1.40;99.90;-1.30;98402.00;;;;5064942;28;20477;-86
2022/03/18 04:18:45;;;;;;;20.43;16.23;;;0.00;99.90;-1.10;98409.00;;;;5056166;28;20432;-84
2022/03/18 04:21:35;;;;;;;25.13;17.73;;;-0.70;99.90;-1.20;98410.00;;;;5050952;28;20443;-86
2022/03/18 04:24:24;;;;;;;18.37;13.90;;;-1.40;99.90;-1.20;98420.00;;;;5052287;28;20986;-86
2022/03/18 04:27:13;;;;;;;21.23;15.90;;;-1.20;99.90;-1.00;98420.00;;;;5049653;28;20423;-86
2022/03/18 04:30:02;;;;;;;22.07;17.40;;;-0.90;99.90;-1.00;98416.00;;;;5050889;28;20426;-86
2022/03/18 04:32:51;;;;;;;22.13;15.83;;;-1.20;99.90;-0.80;98424.00;;;;5048951;28;20451;-86
2022/03/18 04:35:40;;;;;;;18.77;14.27;;;-0.60;99.90;-0.80;98434.00;;;;5058836;28;20472;-86
2022/03/18 04:38:30;;;;;;;22.03;15.13;;;-1.10;99.90;-0.80;98421.00;;;;5053662;28;20453;-86
2022/03/18 04:41:19;;;;;;;22.53;15.40;;;-1.00;99.90;-1.00;98421.00;;;;5049489;28;20434;-86
2022/03/18 04:44:08;;;;;;;20.03;15.23;;;-0.60;99.90;-1.10;98429.00;;;;5049528;28;20427;-86
2022/03/18 04:46:57;;;;;;;20.23;14.50;;;-1.10;99.90;-1.30;98425.00;;;;5051485;28;20434;-85
2022/03/18 04:49:46;;;;;;;24.33;16.40;;;-0.80;99.90;-1.30;98437.00;;;;5050880;28;20806;-86
2022/03/18 04:52:34;;;;;;;18.70;14.47;;;-0.90;99.90;-1.50;98444.00;;;;5058115;28;20460;-87
2022/03/18 04:55:25;;;;;;;18.17;13.10;;;-1.00;99.90;-1.40;98460.00;;;;5068062;28;20466;-86
2022/03/18 04:58:14;;;;;;;19.80;14.57;;;-1.20;99.90;-1.50;98468.00;;;;5068747;28;20434;-86
2022/03/18 05:01:03;;;;;;;22.00;15.97;;;-1.30;99.90;-1.20;98473.00;;;;5065868;28;20455;-87
2022/03/18 05:03:52;;;;;;;20.60;15.83;;;-0.70;99.90;-1.00;98480.00;;;;5062294;28;20808;-87
2022/03/18 05:06:41;;;;;;;21.83;15.57;;;-0.50;99.90;-1.20;98480.00;;;;5062859;28;20439;-87
2022/03/18 05:09:29;;;;;;;12.00;10.00;;;-0.40;99.90;-1.80;98466.00;;;;5060903;28;20815;-86
2022/03/18 05:12:20;;;;;;;24.30;15.33;;;-1.10;99.90;-1.60;98482.00;;;;5054461;28;20458;-87
2022/03/18 05:15:13;;;;;;;21.87;15.67;;;-0.50;99.90;-1.30;98491.00;;;;5059142;28;20844;-86
2022/03/18 05:18:02;;;;;;;20.70;16.47;;;-0.80;99.90;-1.30;98489.00;;;;5065435;28;20835;-85
2022/03/18 05:20:50;;;;;;;20.77;15.20;;;-1.30;99.90;-1.50;98484.00;;;;5064460;28;20442;-85
2022/03/18 05:23:39;;;;;;;18.80;13.87;;;-1.20;99.90;-1.60;98493.00;;;;5068971;28;20845;-87
2022/03/18 05:26:31;;;;;;;17.47;13.17;;;-0.90;99.90;-1.50;98492.00;;;;5057749;28;20529;-85
2022/03/18 05:29:21;;;;;;;23.17;14.83;;;-1.40;99.90;-1.40;98502.00;;;;5049137;28;20808;-85
2022/03/18 05:32:10;;;;;;;24.63;17.33;;;-1.00;99.90;-1.30;98508.00;;;;5068855;28;20438;-85
2022/03/18 05:34:59;;;;;;;22.63;15.37;;;-0.20;99.90;-1.10;98511.00;;;;5056062;28;20432;-85
2022/03/18 05:37:48;;;;;;;22.77;14.90;;;-0.80;99.90;-1.00;98515.00;;;;5064938;28;20425;-85
2022/03/18 05:40:37;;;;;;;22.40;16.23;;;-1.20;99.90;-0.80;98522.00;;;;5071455;28;20415;-86
2022/03/18 05:43:26;;;;;;;23.37;17.40;;;-1.10;99.90;-0.90;98528.00;;;;5051989;28;20493;-85
2022/03/18 05:46:16;;;;;;;22.13;15.10;;;-0.70;99.90;-0.90;98524.00;;;;5054818;28;20447;-85
2022/03/18 05:49:05;;;;;;;22.10;16.13;;;-1.50;99.90;-0.90;98536.00;;;;5068926;28;20438;-86
2022/03/18 05:51:54;;;;;;;23.63;15.23;;;-0.30;99.90;-0.90;98537.00;;;;5063419;28;20462;-85
2022/03/18 05:54:43;;;;;;;22.10;16.50;;;-0.90;99.90;-0.80;98543.00;;;;5055636;28;20423;-86
2022/03/18 05:57:32;;;;;;;23.87;17.00;;;-1.10;99.90;-0.80;98538.00;;;;5055611;28;20431;-86
2022/03/18 06:00:22;;;;;;;20.50;15.60;;;-0.90;99.90;-0.80;98548.00;;;;5062677;28;20485;-86
2022/03/18 06:03:13;;;;;;;23.40;16.33;;;-0.90;99.90;-0.70;98544.00;;;;5062519;28;20473;-86
2022/03/18 06:06:02;;;;;;;21.17;15.73;;;-0.50;99.90;-0.70;98546.00;;;;5061331;28;20818;-86
2022/03/18 06:11:57;;;;;;;18.97;14.90;;;-0.80;99.90;-0.70;98557.00;;;;5059367;28;20451;-86
2022/03/18 06:14:46;;;;;;;25.00;15.93;;;-0.60;99.90;-0.60;98566.00;;;;5056021;28;20451;-86
2022/03/18 06:17:35;;;;;;;24.87;17.23;;;-0.50;99.90;-0.40;98554.00;;;;5063949;28;20450;-86
2022/03/18 06:20:25;;;;;;;27.67;17.93;;;-0.70;99.90;-0.60;98555.00;;;;5067595;28;20442;-86
2022/03/18 06:23:14;;;;;;;22.57;16.73;;;-0.40;99.90;-0.90;98553.00;;;;5070114;28;20818;-86
2022/03/18 06:26:03;;;;;;;27.07;17.93;;;-0.90;99.90;-0.70;98560.00;;;;5062133;28;20469;-87
2022/03/18 06:28:52;;;;;;;22.20;16.43;;;-0.80;99.90;-0.90;98541.00;;;;5069314;28;20430;-85
2022/03/18 06:31:41;;;;;;;22.50;17.87;;;-0.30;99.90;-0.50;98564.00;;;;5066018;28;20523;-86
2022/03/18 06:34:30;;;;;;;22.50;18.00;;;0.00;99.90;-0.30;98564.00;;;;5069407;28;20422;-85
2022/03/18 06:37:22;;;;;;;25.30;19.63;;;-0.20;99.90;-0.10;98560.00;;;;5055652;28;20499;-86
2022/03/18 06:40:12;;;;;;;23.33;16.67;;;0.60;99.90;-0.20;98557.00;;;;5064043;28;21012;-85
2022/03/18 06:43:01;;;;;;;23.77;15.97;;;-0.30;99.90;-0.30;98568.00;;;;5061016;28;20470;-86
2022/03/18 06:45:49;;;;;;;22.73;15.53;;;-0.20;99.90;-0.10;98573.00;;;;5062373;28;20932;-86
2022/03/18 06:48:38;;;;;;;20.20;16.43;;;0.00;99.90;0.10;98585.00;;;;5052769;28;20423;-86
2022/03/18 06:51:27;;;;;;;24.63;17.57;;;0.20;99.90;0.30;98581.00;;;;5067261;28;20446;-85
2022/03/18 06:54:17;;;;;;;24.63;16.93;;;0.10;99.90;0.80;98580.00;;;;5060128;28;20443;-85
2022/03/18 06:57:06;;;;;;;23.93;16.33;;;0.20;99.90;1.00;98584.00;;;;5071301;28;20485;-86
2022/03/18 06:59:56;;;;;;;23.50;17.47;;;0.40;99.90;0.90;98588.00;;;;5063016;28;20440;-85
2022/03/18 07:02:45;;;;;;;22.93;17.27;;;0.50;99.90;1.00;98599.00;;;;5062652;28;20838;-85
2022/03/18 07:05:34;;;;;;;26.33;17.07;;;0.70;99.90;1.10;98592.00;;;;5061890;28;20857;-86
2022/03/18 07:08:23;;;;;;;24.00;15.83;;;0.70;99.90;1.40;98602.00;;;;5065171;28;20430;-85
2022/03/18 07:11:14;;;;;;;24.70;18.13;;;1.00;99.90;1.40;98597.00;;;;5066276;28;20430;-85
2022/03/18 07:14:03;;;;;;;26.17;18.80;;;1.00;99.90;1.30;98595.00;;;;5057374;28;20423;-85
2022/03/18 07:19:58;;;;;;;28.20;17.83;;;1.20;99.90;2.00;98608.00;;;;5066421;28;20798;-86
2022/03/18 07:22:47;;;;;;;22.80;17.03;;;1.30;99.90;2.00;98612.00;;;;5064183;28;20470;-85
2022/03/18 07:25:38;;;;;;;24.67;16.60;;;1.50;99.90;2.20;98617.00;;;;5061349;28;20430;-85
2022/03/18 07:28:28;;;;;;;19.20;16.60;;;1.60;99.90;2.20;98615.00;;;;5050334;28;20806;-85
2022/03/18 07:31:17;;;;;;;21.10;16.20;;;1.80;99.90;2.60;98631.00;;;;5050634;28;20531;-85
2022/03/18 07:34:06;;;;;;;25.23;16.43;;;2.00;99.90;2.90;98627.00;;;;5058706;28;20644;-86
2022/03/18 07:36:55;;;;;;;23.90;17.97;;;2.10;99.90;3.10;98630.00;;;;5063406;28;20454;-86
2022/03/18 07:39:44;;;;;;;21.00;16.33;;;2.20;99.90;3.40;98636.00;;;;5056109;28;20423;-86
2022/03/18 07:42:42;;;;;;;25.33;17.03;;;2.40;99.90;3.60;98627.00;;;;5059294;28;20469;-86
2022/03/18 07:45:34;;;;;;;23.60;17.47;;;2.60;99.90;3.80;98631.00;;;;5062632;28;20423;-86
2022/03/18 07:48:26;;;;;;;24.97;16.53;;;2.90;99.90;4.10;98630.00;;;;5053060;28;20856;-89
2022/03/18 07:51:15;;;;;;;25.80;17.07;;;3.10;99.90;4.40;98642.00;;;;5059203;28;20471;-88
2022/03/18 07:54:04;;;;;;;28.67;18.13;;;3.40;99.90;4.40;98642.00;;;;5056252;28;20438;-88
2022/03/18 07:56:54;;;;;;;25.53;17.60;;;3.60;99.90;4.40;98633.00;;;;5065845;28;20573;-88
2022/03/18 07:59:43;;;;;;;23.00;17.23;;;3.90;99.90;4.70;98640.00;;;;5069690;28;20557;-89
2022/03/18 08:02:33;;;;;;;25.73;19.07;;;4.10;99.90;4.90;98648.00;;;;5073322;28;20853;-88
2022/03/18 08:05:25;;;;;;;25.73;18.00;;;4.30;99.90;5.30;98642.00;;;;5081220;28;20425;-88
2022/03/18 08:08:16;;;;;;;25.27;16.93;;;4.50;99.90;5.70;98651.00;;;;5076528;28;20430;-88
2022/03/18 08:11:06;;;;;;;26.37;17.07;;;4.70;99.90;5.70;98647.00;;;;5075880;28;21049;-89
2022/03/18 08:13:55;;;;;;;27.10;17.80;;;4.90;99.90;5.80;98654.00;;;;5075138;28;20199;-89
2022/03/18 08:16:44;;;;;;;25.83;17.67;;;5.10;99.90;6.00;98664.00;;;;5078228;28;20713;-89
2022/03/18 08:19:34;;;;;;;23.83;17.23;;;5.20;99.90;6.20;98659.00;;;;5078827;28;20233;-89
2022/03/18 08:22:24;;;;;;;30.17;18.07;;;5.40;99.90;6.30;98657.00;;;;5075345;28;20226;-86
2022/03/18 08:25:12;;;;;;;27.87;18.20;;;5.50;99.90;6.20;98656.00;;;;5073967;28;20191;-85
2022/03/18 08:28:02;;;;;;;26.37;18.13;;;5.60;99.90;6.40;98667.00;;;;5074695;28;20215;-86
2022/03/18 08:30:51;;;;;;;28.67;17.53;;;5.70;99.90;6.90;98663.00;;;;5074549;28;20195;-85
2022/03/18 08:33:40;;;;;;;24.83;17.93;;;5.80;99.90;7.00;98674.00;;;;5074312;28;20228;-86
2022/03/18 08:36:30;;;;;;;26.03;19.00;;;6.00;99.90;7.40;98672.00;;;;5071977;28;20214;-86
2022/03/18 08:39:19;;;;;;;20.87;16.43;;;6.20;99.90;7.80;98673.00;;;;5074569;28;20203;-85
2022/03/18 08:42:08;;;;;;;25.77;18.07;;;6.40;99.90;7.70;98674.00;;;;5070343;28;20220;-85
2022/03/18 08:44:57;;;;;;;27.07;17.33;;;6.60;99.90;7.70;98679.00;;;;5072809;28;20207;-85
2022/03/18 08:47:47;;;;;;;24.97;17.87;;;6.80;99.90;7.90;98685.00;;;;5069918;28;20341;-86
2022/03/18 08:50:36;;;;;;;22.33;17.70;;;6.90;99.90;8.10;98680.00;;;;5072706;28;20200;-86
2022/03/18 08:53:26;;;;;;;29.10;17.27;;;7.10;99.90;8.10;98684.00;;;;5075624;28;20735;-86
2022/03/18 08:56:15;;;;;;;24.67;18.33;;;7.30;99.90;8.30;98686.00;;;;5072016;28;20207;-86
2022/03/18 08:59:06;;;;;;;29.00;17.93;;;7.40;99.90;8.60;98685.00;;;;5063197;28;20692;-86
2022/03/18 09:01:55;;;;;;;24.50;18.40;;;7.50;99.90;9.00;98689.00;;;;5058132;28;20367;-86
2022/03/18 09:04:44;;;;;;;26.63;18.73;;;7.70;99.90;9.50;98682.00;;;;5062107;28;20234;-85
2022/03/18 09:07:33;;;;;;;21.20;17.50;;;7.90;99.90;9.70;98702.00;;;;5056731;28;20203;-86
2022/03/18 09:10:24;;;;;;;23.67;18.97;;;8.20;99.90;9.80;98699.00;;;;5058948;28;20570;-86
2022/03/18 09:13:13;;;;;;;25.90;19.07;;;8.40;99.90;9.70;98695.00;;;;5061380;28;20216;-86
2022/03/18 09:16:02;;;;;;;35.93;21.07;;;8.60;99.90;10.10;98698.00;;;;5063819;28;20219;-86
2022/03/18 09:19:00;;;;;;;22.27;18.67;;;8.70;99.90;9.90;98707.00;;;;5067608;28;20227;-86
2022/03/18 09:21:48;;;;;;;23.43;19.10;;;8.90;99.90;9.90;98705.00;;;;5059106;28;20215;-86
2022/03/18 09:24:39;;;;;;;23.43;18.37;;;9.00;99.90;9.80;98692.00;;;;5064366;28;20210;-86
2022/03/18 09:27:29;;;;;;;27.07;19.07;;;9.00;99.90;10.40;98705.00;;;;5059300;28;20204;-86
2022/03/18 09:30:18;;;;;;;26.63;19.13;;;9.20;99.90;10.70;98710.00;;;;5061002;28;20208;-86
2022/03/18 09:33:09;;;;;;;23.37;18.33;;;9.30;99.90;10.90;98709.00;;;;5062242;28;20219;-86
2022/03/18 09:35:58;;;;;;;25.73;18.13;;;9.50;99.90;11.00;98712.00;;;;5063094;28;20196;-86
2022/03/18 09:38:48;;;;;;;25.37;19.10;;;9.70;99.90;11.30;98709.00;;;;5060745;28;20235;-86
2022/03/18 09:41:37;;;;;;;22.63;18.03;;;9.90;99.70;11.70;98715.00;;;;5059916;28;20679;-86
2022/03/18 09:44:34;;;;;;;23.63;20.03;;;10.10;99.20;12.00;98716.00;;;;5063007;28;20195;-86
2022/03/18 09:47:23;;;;;;;22.77;17.43;;;10.30;98.60;12.00;98730.00;;;;5061461;28;20215;-86
2022/03/18 09:50:12;;;;;;;21.47;17.67;;;10.50;97.40;11.80;98724.00;;;;5054103;28;20196;-86
2022/03/18 09:53:03;;;;;;;27.83;19.23;;;10.60;96.20;11.30;98721.00;;;;5060074;28;20220;-87
2022/03/18 09:55:53;;;;;;;20.57;18.07;;;10.70;94.60;11.00;98719.00;;;;5059695;28;20286;-86
2022/03/18 09:58:41;;;;;;;25.30;17.20;;;10.60;93.80;11.70;98729.00;;;;5059144;28;20236;-86
2022/03/18 10:01:32;;;;;;;21.07;18.67;;;10.60;94.10;11.80;98719.00;;;;5061677;28;20289;-87
2022/03/18 10:04:20;;;;;;;27.80;17.77;;;10.60;93.80;11.90;98726.00;;;;5067002;28;20621;-86
2022/03/18 10:07:14;;;;;;;26.93;17.87;;;10.70;93.80;12.20;98734.00;;;;5057493;28;20206;-86
2022/03/18 10:10:15;;;;;;;22.90;18.57;;;10.80;93.80;11.70;98724.00;;;;5061832;28;20215;-87
2022/03/18 10:13:08;;;;;;;25.07;18.23;;;10.90;91.90;11.30;98727.00;;;;5058135;28;20232;-86
2022/03/18 10:15:58;;;;;;;25.30;18.10;;;10.80;91.60;11.20;98730.00;;;;5056205;28;20205;-86
2022/03/18 10:18:53;;;;;;;24.03;18.63;;;10.80;92.30;10.90;98720.00;;;;5062538;28;20224;-86
2022/03/18 10:21:54;;;;;;;26.87;19.73;;;10.70;92.40;10.30;98719.00;;;;5057948;28;20222;-86
2022/03/18 10:24:43;;;;;;;24.17;19.00;;;10.50;91.90;10.50;98717.00;;;;5059853;28;20945;-86
2022/03/18 10:27:33;;;;;;;25.20;19.23;;;10.40;92.30;10.70;98714.00;;;;5062312;28;20230;-86
2022/03/18 10:30:22;;;;;;;25.50;18.93;;;10.10;92.50;11.30;98724.00;;;;5059862;28;20196;-86
2022/03/18 10:33:11;;;;;;;28.20;19.50;;;10.20;93.10;11.80;98743.00;;;;5061531;28;20216;-86
2022/03/18 10:39:33;;;;;;;20.20;17.57;;;10.80;93.00;11.30;98736.00;;;;5056694;28;20234;-86
2022/03/18 10:42:23;;;;;;;22.10;14.93;;;11.00;90.10;11.60;98734.00;;;;5060974;28;20227;-87
2022/03/18 10:45:12;;;;;;;19.63;15.67;;;10.90;87.70;12.30;98739.00;;;;5057500;28;20204;-87
2022/03/18 10:48:12;;;;;;;18.27;16.33;;;11.00;88.20;11.30;98735.00;;;;5064282;28;20211;-86
2022/03/18 10:51:08;;;;;;;17.93;13.50;;;11.00;85.40;10.20;98741.00;;;;5058610;28;20208;-87
2022/03/18 10:53:58;;;;;;;16.23;13.00;;;10.70;82.60;10.80;98742.00;;;;5060086;28;20199;-86
2022/03/18 10:56:59;;;;;;;20.07;15.87;;;10.50;83.10;10.90;98742.00;;;;5062239;28;20341;-87
2022/03/18 10:59:48;;;;;;;17.77;14.97;;;10.50;84.60;11.20;98753.00;;;;5060198;28;20251;-86
2022/03/18 11:02:37;;;;;;;24.23;17.63;;;10.50;85.40;11.40;98753.00;;;;5061380;28;20223;-87
2022/03/18 11:05:29;;;;;;;18.33;15.20;;;10.50;87.20;11.80;98753.00;;;;5064284;28;20200;-86
2022/03/18 11:08:22;;;;;;;17.47;13.70;;;10.60;87.30;12.00;98754.00;;;;5061059;28;20212;-87
2022/03/18 11:11:18;;;;;;;18.50;14.07;;;10.70;86.10;12.40;98757.00;;;;5074076;28;20196;-87
2022/03/18 11:14:09;;;;;;;16.30;14.00;;;10.90;85.80;11.90;98730.00;;;;5072475;28;20263;-87
2022/03/18 11:16:58;;;;;;;21.27;15.97;;;11.20;83.40;12.30;98738.00;;;;5069462;28;20667;-87
2022/03/18 11:19:47;;;;;;;19.23;15.63;;;11.30;82.10;13.60;98736.00;;;;5071163;28;20226;-87
2022/03/18 11:22:37;;;;;;;16.33;14.40;;;11.70;81.90;13.80;98738.00;;;;5075329;28;20244;-88
2022/03/18 11:25:29;;;;;;;16.67;14.47;;;12.00;80.40;13.80;98739.00;;;;5080934;28;20657;-87
2022/03/18 11:28:20;;;;;;;19.33;15.37;;;12.20;79.60;13.60;98727.00;;;;5075750;28;20214;-86
2022/03/18 11:31:11;;;;;;;17.50;12.97;;;12.60;76.50;13.40;98739.00;;;;5075407;28;20586;-87
2022/03/18 11:34:11;;;;;;;18.23;13.73;;;12.80;73.50;14.20;98729.00;;;;5077972;28;20202;-87
2022/03/18 11:37:09;;;;;;;18.03;14.30;;;12.90;73.00;14.70;98735.00;;;;5074029;28;20200;-87
2022/03/18 11:40:31;;;;;;;20.07;13.73;;;13.10;74.00;14.80;98736.00;;;;5075439;28;20849;-87
2022/03/18 11:43:34;;;;;;;16.33;14.63;;;13.30;72.80;14.40;98728.00;;;;5076957;28;20225;-87
2022/03/18 11:46:25;;;;;;;22.97;15.53;;;13.50;71.20;14.30;98741.00;;;;5078582;28;20213;-87
2022/03/18 11:49:14;;;;;;;15.87;14.23;;;13.50;69.20;14.80;98748.00;;;;5079297;28;20204;-87
2022/03/18 11:52:04;;;;;;;18.63;13.93;;;13.50;70.40;15.00;98746.00;;;;5077381;28;20624;-88
2022/03/18 11:54:53;;;;;;;19.70;14.43;;;13.60;70.00;13.90;98734.00;;;;5075180;28;20238;-88
2022/03/18 11:57:49;;;;;;;17.23;15.43;;;13.70;65.90;14.70;98726.00;;;;5073161;28;20207;-87
2022/03/18 12:00:43;;;;;;;17.23;14.03;;;13.70;67.90;14.60;98731.00;;;;5067184;28;20219;-87
2022/03/18 12:03:37;;;;;;;18.13;15.43;;;13.60;66.20;15.00;98736.00;;;;5075158;28;20723;-88
2022/03/18 12:06:26;;;;;;;22.80;15.10;;;13.60;66.30;14.90;98732.00;;;;5062679;28;20677;-87
2022/03/18 12:09:25;;;;;;;17.07;13.80;;;13.70;65.70;14.50;98734.00;;;;5060212;28;20200;-87
2022/03/18 12:12:19;;;;;;;19.97;14.30;;;13.60;65.80;14.00;98722.00;;;;5073559;28;20208;-87
2022/03/18 12:15:12;;;;;;;18.03;15.20;;;13.50;65.20;14.60;98716.00;;;;5077108;28;20200;-87
2022/03/18 12:18:01;;;;;;;20.97;14.87;;;13.40;65.30;15.10;98717.00;;;;5072748;28;20199;-87
2022/03/18 12:20:49;;;;;;;17.40;14.50;;;13.50;66.40;15.90;98708.00;;;;5073205;28;20199;-87
2022/03/18 12:23:38;;;;;;;19.47;15.67;;;13.80;66.90;15.80;98731.00;;;;5076931;28;20219;-87
2022/03/18 12:26:28;;;;;;;22.93;16.83;;;14.10;65.80;16.10;98706.00;;;;5081099;28;20668;-87
2022/03/18 12:29:26;;;;;;;19.17;16.03;;;14.30;64.20;15.80;98729.00;;;;5076682;28;20203;-88
2022/03/18 12:32:17;;;;;;;22.50;16.17;;;14.50;64.20;14.40;98724.00;;;;5072437;28;20700;-86
2022/03/18 12:35:06;;;;;;;16.87;14.60;;;14.50;62.50;15.50;98714.00;;;;5077559;28;20197;-87
2022/03/18 12:38:05;;;;;;;22.37;16.53;;;14.40;62.70;15.90;98717.00;;;;5079888;28;20203;-88
2022/03/18 12:40:57;;;;;;;23.23;16.67;;;14.50;62.60;15.20;98722.00;;;;5078868;28;20208;-87
2022/03/18 12:43:46;;;;;;;18.63;15.13;;;14.50;62.60;13.60;98706.00;;;;5066163;28;20224;-87